GAF77 EDDH-LKKB
Flight info
| Callsign | GAF77 |
|---|---|
| Flight time | N/A |
| Altitude | 5000 |
| Route | EDDH DCT EDOV DCT EDDP DCT LKPC DCT LKKB |
| Aircraft | CH47/M-V/N |
Departure
| Time | 2026-04-24 14:12 |
|---|---|
| Airport | Hamburg Helmut Schmidt Airport (EDDH) |
Arrival
| Time | N/A |
|---|---|
| Airport | Prague–Kbely Air Base (LKKB) |
| Time | Latitude | Longitude | Altitude | Speed | Heading |
|---|---|---|---|---|---|
| 2026-04-24 13:41 | 53.62590 | 9.98690 | 44 ft | 0 kts | 243° |
| 2026-04-24 14:06 | 53.62589 | 9.98689 | 45 ft | 1 kts | 243° |
| 2026-04-24 14:06 | 53.62606 | 9.98668 | 43 ft | 9 kts | 27° |
| 2026-04-24 14:07 | 53.62680 | 9.98672 | 45 ft | 12 kts | 334° |
| 2026-04-24 14:07 | 53.62756 | 9.98686 | 45 ft | 15 kts | 49° |
| 2026-04-24 14:07 | 53.62835 | 9.98845 | 45 ft | 20 kts | 53° |
| 2026-04-24 14:07 | 53.62915 | 9.99011 | 45 ft | 18 kts | 45° |
| 2026-04-24 14:08 | 53.63003 | 9.99189 | 44 ft | 21 kts | 50° |
| 2026-04-24 14:08 | 53.63078 | 9.99288 | 45 ft | 8 kts | 21° |
| 2026-04-24 14:08 | 53.63117 | 9.99306 | 44 ft | 5 kts | 13° |
| 2026-04-24 14:08 | 53.63144 | 9.99316 | 44 ft | 0 kts | 13° |
| 2026-04-24 14:11 | 53.63249 | 9.99355 | 45 ft | 16 kts | 6° |
| 2026-04-24 14:12 | 53.63445 | 9.99253 | 208 ft | 61 kts | 328° |
| 2026-04-24 14:12 | 53.63989 | 9.98788 | 425 ft | 105 kts | 330° |
| 2026-04-24 14:12 | 53.64647 | 9.99345 | 967 ft | 121 kts | 46° |
| 2026-04-24 14:12 | 53.65021 | 10.00712 | 1086 ft | 136 kts | 60° |
| 2026-04-24 14:13 | 53.65309 | 10.02415 | 762 ft | 161 kts | 89° |
| 2026-04-24 14:13 | 53.65072 | 10.04186 | 890 ft | 149 kts | 121° |
| 2026-04-24 14:13 | 53.64405 | 10.05463 | 970 ft | 143 kts | 150° |
| 2026-04-24 14:13 | 53.63616 | 10.06483 | 1049 ft | 143 kts | 153° |
| 2026-04-24 14:14 | 53.62827 | 10.07490 | 1086 ft | 145 kts | 152° |
| 2026-04-24 14:14 | 53.62021 | 10.08508 | 1234 ft | 141 kts | 152° |
| 2026-04-24 14:14 | 53.60447 | 10.10629 | 1231 ft | 148 kts | 149° |
| 2026-04-24 14:15 | 53.59654 | 10.11773 | 1194 ft | 152 kts | 147° |
| 2026-04-24 14:15 | 53.58840 | 10.12920 | 1176 ft | 151 kts | 154° |
| 2026-04-24 14:15 | 53.57989 | 10.14005 | 1096 ft | 154 kts | 153° |
| 2026-04-24 14:15 | 53.57045 | 10.14997 | 749 ft | 162 kts | 160° |
| 2026-04-24 14:16 | 53.56191 | 10.15685 | 1351 ft | 116 kts | 167° |
| 2026-04-24 14:16 | 53.55491 | 10.16026 | 1849 ft | 102 kts | 184° |
| 2026-04-24 14:16 | 53.54729 | 10.16507 | 1914 ft | 132 kts | 167° |
| 2026-04-24 14:17 | 53.52905 | 10.18329 | 1601 ft | 151 kts | 144° |
| 2026-04-24 14:17 | 53.52202 | 10.19616 | 1564 ft | 155 kts | 139° |
| 2026-04-24 14:17 | 53.50792 | 10.22586 | 1218 ft | 165 kts | 136° |
| 2026-04-24 14:18 | 53.50095 | 10.24097 | 1187 ft | 164 kts | 134° |
| 2026-04-24 14:18 | 53.49408 | 10.25600 | 1307 ft | 158 kts | 134° |
| 2026-04-24 14:18 | 53.48725 | 10.27098 | 1148 ft | 168 kts | 135° |
| 2026-04-24 14:18 | 53.47970 | 10.28649 | 890 ft | 171 kts | 135° |
| 2026-04-24 14:19 | 53.47485 | 10.29673 | 898 ft | 167 kts | 135° |
| 2026-04-24 14:19 | 53.46538 | 10.31718 | 923 ft | 163 kts | 133° |
| 2026-04-24 14:19 | 53.45871 | 10.33232 | 974 ft | 161 kts | 132° |
| 2026-04-24 14:19 | 53.45145 | 10.34650 | 1064 ft | 161 kts | 141° |
| 2026-04-24 14:20 | 53.44345 | 10.36019 | 1036 ft | 165 kts | 143° |
| 2026-04-24 14:20 | 53.43520 | 10.37333 | 1097 ft | 162 kts | 147° |
| 2026-04-24 14:20 | 53.42626 | 10.38369 | 1388 ft | 156 kts | 158° |
| 2026-04-24 14:20 | 53.41691 | 10.39303 | 1592 ft | 157 kts | 160° |
| 2026-04-24 14:21 | 53.40731 | 10.40192 | 1646 ft | 159 kts | 162° |
| 2026-04-24 14:21 | 53.39738 | 10.41057 | 1626 ft | 162 kts | 162° |
| 2026-04-24 14:21 | 53.38786 | 10.42166 | 1486 ft | 169 kts | 151° |
| 2026-04-24 14:21 | 53.37917 | 10.43490 | 1408 ft | 169 kts | 144° |
| 2026-04-24 14:22 | 53.37104 | 10.44951 | 1225 ft | 175 kts | 140° |
| 2026-04-24 14:22 | 53.36332 | 10.46536 | 989 ft | 176 kts | 134° |
| 2026-04-24 14:22 | 53.35005 | 10.49728 | 1256 ft | 159 kts | 128° |
| 2026-04-24 14:23 | 53.34415 | 10.51226 | 1584 ft | 149 kts | 133° |
| 2026-04-24 14:23 | 53.33765 | 10.52609 | 1798 ft | 154 kts | 139° |
| 2026-04-24 14:23 | 53.33033 | 10.53940 | 1920 ft | 160 kts | 142° |
| 2026-04-24 14:23 | 53.32285 | 10.55332 | 1909 ft | 166 kts | 141° |
| 2026-04-24 14:24 | 53.31479 | 10.56814 | 1598 ft | 176 kts | 142° |
| 2026-04-24 14:24 | 53.30659 | 10.58383 | 1304 ft | 177 kts | 135° |
| 2026-04-24 14:24 | 53.29922 | 10.59866 | 1483 ft | 161 kts | 137° |
| 2026-04-24 14:24 | 53.29241 | 10.61320 | 1614 ft | 157 kts | 134° |
| 2026-04-24 14:25 | 53.28588 | 10.62770 | 1858 ft | 155 kts | 133° |
| 2026-04-24 14:25 | 53.27967 | 10.64212 | 2343 ft | 148 kts | 130° |
| 2026-04-24 14:25 | 53.27360 | 10.65620 | 2576 ft | 153 kts | 141° |
| 2026-04-24 14:25 | 53.26556 | 10.67072 | 1645 ft | 189 kts | 142° |
| 2026-04-24 14:26 | 53.25690 | 10.68579 | 1411 ft | 174 kts | 144° |
| 2026-04-24 14:26 | 53.24821 | 10.69859 | 1352 ft | 155 kts | 149° |
| 2026-04-24 14:26 | 53.24081 | 10.70958 | 1668 ft | 133 kts | 150° |
| 2026-04-24 14:26 | 53.23403 | 10.71898 | 1983 ft | 128 kts | 149° |
| 2026-04-24 14:27 | 53.22870 | 10.72604 | 2949 ft | 82 kts | 159° |
| 2026-04-24 14:27 | 53.22300 | 10.73367 | 2931 ft | 122 kts | 147° |
| 2026-04-24 14:27 | 53.21620 | 10.74152 | 2086 ft | 80 kts | 162° |
| 2026-04-24 14:27 | 53.20502 | 10.74800 | 289 ft | 180 kts | 175° |
| 2026-04-24 14:28 | 53.19418 | 10.75092 | 316 ft | 135 kts | 179° |
| 2026-04-24 14:28 | 53.18676 | 10.75856 | 648 ft | 129 kts | 143° |
| 2026-04-24 14:28 | 53.18208 | 10.76992 | 1126 ft | 118 kts | 127° |